AirNav   Everest Fuels
 
 949 users online  

12KY John M Foree Airport
New Castle, Kentucky, USA

GOING TO NEW CASTLE?


FAA INFORMATION EFFECTIVE 10 SEPTEMBER 2020

Location

FAA Identifier: 12KY
Lat/Long: 38-27-37.2390N 085-10-06.8360W
38-27.620650N 085-10.113933W
38.4603442,-85.1685656
(estimated)
Elevation: 853 ft. / 260 m (estimated)
Variation: 03W (1985)
From city: 2 miles N of NEW CASTLE, KY
Time zone: UTC -4 (UTC -5 during Standard Time)
Zip code: 40050

Airport Operations

Airport use: Private use. Permission required prior to landing
Activation date: 09/1972
Control tower: no
ARTCC: INDIANAPOLIS CENTER
FSS: LOUISVILLE FLIGHT SERVICE STATION
Attendance: UNATNDD
Wind indicator: yes
Segmented circle: yes
Lights: FOR LIRL RY 13/31 CALL 502-845-7272.

Nearby radio navigation aids

VOR radial/distance  VOR name  Freq  Var
FFTr327/(20.7)FRANKFORT VOR109.4003W
IIUr041/28.8LOUISVILLE VORTAC114.8001E
CVGr217/39.8CINCINNATI VORTAC117.3004W

Airport Services

Airframe service: NONE
Powerplant service: NONE

Runway Information

Runway 13/31

Dimensions: 2500 x 100 ft. / 762 x 30 m
Surface: turf
Runway edge lights: low intensity
RUNWAY 13  RUNWAY 31
Traffic pattern: leftleft

Airport Ownership and Management from official FAA records

Ownership: Privately-owned
Owner: JOHN B. FOREE, DVM
2135 CAMPBELLSBURG ROAD
NEW CASTLE, KY 40050
Phone 502-845-7272
Manager: JOHN B. FOREE, DVM
2135 CAMPBELLSBURG ROAD
NEW CASTLE, KY 40050
Phone 502-845-7272

Airport Operational Statistics

Aircraft based on the field: 3
Single engine airplanes: 2
Multi engine airplanes: 1
    

Additional Remarks

A52-31 50' PLINE E OF LNDG AREA 10' ABV RWY ELEV.
FOR CD CTC LOUISVILLE APCH AT 502-375-7499

Instrument Procedures

There are no published instrument procedures at 12KY.

Some nearby airports with instrument procedures:

KFFT - Capital City Airport (21 nm SE)
KIMS - Madison Municipal Airport (23 nm NW)
KLOU - Bowman Field Airport (27 nm SW)
KJVY - Clark Regional Airport (27 nm W)
KSDF - Louisville Muhammad Ali International Airport (32 nm SW)
 
Loc | Ops | Rwys | IFR | FBO | Links
Com | Nav | Svcs | Stats | Notes
Area around 12KY (John M Foree Airport)
 
Road maps at: MapQuest Bing Google
 
Aerial photo
No photo
 
Sectional chart

 
Airport distance calculator
Flying to John M Foree Airport? Find the distance to fly.

From to 12KY

Sunrise and sunset
Times for 18-Sep-2020
 Local
(UTC-4)
 Zulu
(UTC)
Morning civil twilight07:0011:00
Sunrise07:2711:27
Sunset19:4223:42
Evening civil twilight20:0900:09

Current date and time
Zulu (UTC)  19-Sep-2020 02:26:46
Local (UTC-4)  18-Sep-2020 22:26:46
 
METAR
KFFT 
21nm SE 
190153Z AUTO 02004KT 10SM CLR 15/07 A3023 RMK AO2 SLP234 T01500067
KIMS 
23nm NW 
190215Z AUTO 00000KT 10SM CLR 10/06 A3028 RMK AO1
KLOU 
28nm SW 
190153Z 01007KT 10SM CLR 16/06 A3024 RMK AO2 SLP237 T01560056
KSDF 
31nm SW 
190156Z 02008KT 10SM CLR 17/07 A3023 RMK AO2 SLP237 T01670067
KLEX 
37nm SE 
190154Z 04009KT 10SM CLR 13/06 A3023 RMK AO2 SLP234 T01330061 $
K27K 
37nm E 
190215Z AUTO 00000KT CLR 12/05 A3024 RMK AO1
TAF
KSDF 
31nm SW 
181724Z 1818/1924 02013G20KT P6SM FEW040 FM182300 02010KT P6SM SKC FM191400 05009KT P6SM SKC
KLEX 
37nm SE 
181724Z 1818/1918 02014G20KT P6SM SCT040 FM182300 02012KT P6SM SKC FM191300 05012KT P6SM SKC
NOTAMs
Click for the latest NOTAMs
NOTAMs are issued by the DoD/FAA and will open in a separate window not controlled by AirNav.

 

 
 

Would you like to see your business listed on this page?

 If your business provides an interesting product or service to pilots, flight crews, aircraft, or users of the John M Foree Airport, you should consider listing it here.  To start the listing process, click on the button below
 
Add a business
 

Other Pages about John M Foree Airport

Update a link
 
Copyright © AirNav, LLC. All rights reserved. Privacy Policy  Contact